Time;durP1;ratioP1;P1;durP2;ratioP2;P2;SDS_P1;SDS_P2;PMS_P1;PMS_P2;Temp;Humidity;BMP_temperature;BMP_pressure;BME280_temperature;BME280_humidity;BME280_pressure;Samples;Min_cycle;Max_cycle;Signal;HPM_P1;HPM_P2
2020/12/29 00:01:30;;;;;;;58.08;27.30;;;;;;;;;;5081391;28;20127;-74
2020/12/29 00:03:56;;;;;;;;;;;;;;;;;;5113348;27;20072;-74
2020/12/29 00:06:22;;;;;;;54.60;25.70;;;;;;;;;;5082511;28;19920;-75
2020/12/29 00:08:48;;;;;;;58.00;27.05;;;;;;;;;;5086189;28;20082;-74
2020/12/29 00:11:15;;;;;;;64.45;29.52;;;;;;;;;;5085360;28;20060;-75
2020/12/29 00:13:41;;;;;;;70.88;29.55;;;;;;;;;;5081430;28;20476;-75
2020/12/29 00:16:07;;;;;;;59.58;28.33;;;;;;;;;;5111044;27;20090;-75
2020/12/29 00:18:35;;;;;;;65.18;29.35;;;;;;;;;;5086624;28;20113;-75
2020/12/29 00:21:02;;;;;;;60.00;27.52;;;;;;;;;;5083943;28;20052;-74
2020/12/29 00:23:28;;;;;;;53.70;27.13;;;;;;;;;;5083537;28;20036;-74
2020/12/29 00:25:55;;;;;;;61.53;28.50;;;;;;;;;;5082607;28;20101;-74
2020/12/29 00:28:21;;;;;;;71.05;30.48;;;;;;;;;;5085667;28;20040;-74
2020/12/29 00:30:49;;;;;;;61.17;29.08;;;;;;;;;;5085643;28;20187;-74
2020/12/29 00:33:15;;;;;;;65.82;29.40;;;;;;;;;;5079201;28;20153;-75
2020/12/29 00:35:42;;;;;;;66.65;28.67;;;;;;;;;;5083254;28;20043;-74
2020/12/29 00:38:08;;;;;;;69.30;28.52;;;;;;;;;;5083839;28;20052;-75
2020/12/29 00:40:35;;;;;;;65.60;28.42;;;;;;;;;;5085667;28;20048;-75
2020/12/29 00:43:01;;;;;;;89.28;31.02;;;;;;;;;;5082607;28;20048;-75
2020/12/29 00:45:27;;;;;;;61.88;27.15;;;;;;;;;;5088902;28;20047;-74
2020/12/29 00:47:54;;;;;;;81.55;30.77;;;;;;;;;;5084671;28;20112;-75
2020/12/29 00:50:20;;;;;;;73.50;30.40;;;;;;;;;;5081017;28;20086;-74
2020/12/29 00:52:46;;;;;;;76.10;29.77;;;;;;;;;;5079835;28;20044;-75
2020/12/29 00:55:12;;;;;;;72.20;27.70;;;;;;;;;;5081455;28;20036;-74
2020/12/29 00:57:39;;;;;;;71.45;27.80;;;;;;;;;;5088737;28;20109;-75
2020/12/29 01:00:06;;;;;;;67.25;27.05;;;;;;;;;;5078952;28;20036;-74
2020/12/29 01:02:32;;;;;;;68.50;28.98;;;;;;;;;;5084220;28;20032;-75
2020/12/29 01:04:58;;;;;;;86.28;30.70;;;;;;;;;;5109711;28;20041;-75
2020/12/29 01:07:25;;;;;;;72.85;29.50;;;;;;;;;;5077052;28;20126;-75
2020/12/29 01:09:51;;;;;;;69.93;27.60;;;;;;;;;;5111271;28;20106;-75
2020/12/29 01:12:17;;;;;;;86.93;30.58;;;;;;;;;;5083700;28;20503;-75
2020/12/29 01:14:43;;;;;;;74.25;29.40;;;;;;;;;;5085372;28;20044;-75
2020/12/29 01:17:10;;;;;;;79.60;30.08;;;;;;;;;;5086898;28;20806;-74
2020/12/29 01:19:36;;;;;;;73.05;27.98;;;;;;;;;;5087408;28;20043;-74
2020/12/29 01:22:03;;;;;;;68.05;25.83;;;;;;;;;;5081303;28;20040;-74
2020/12/29 01:24:29;;;;;;;78.78;28.23;;;;;;;;;;5086719;28;20062;-75
2020/12/29 01:26:56;;;;;;;70.60;28.13;;;;;;;;;;5087461;28;20142;-75
2020/12/29 01:29:23;;;;;;;69.45;26.58;;;;;;;;;;5082893;28;20175;-74
2020/12/29 01:31:49;;;;;;;78.38;27.25;;;;;;;;;;5075745;28;20044;-75
2020/12/29 01:34:16;;;;;;;59.72;25.83;;;;;;;;;;5086841;28;20032;-75
2020/12/29 01:36:42;;;;;;;70.65;27.27;;;;;;;;;;5078461;28;20166;-75
2020/12/29 01:39:09;;;;;;;76.35;26.30;;;;;;;;;;5079811;28;20040;-74
2020/12/29 01:41:35;;;;;;;60.90;26.48;;;;;;;;;;5082155;28;20410;-74
2020/12/29 01:44:12;;;;;;;73.80;27.60;;;;;;;;;;5082897;28;20043;-74
2020/12/29 01:46:41;;;;;;;82.25;28.40;;;;;;;;;;5087774;28;20055;-75
2020/12/29 01:49:07;;;;;;;70.65;26.98;;;;;;;;;;5086064;28;20037;-75
2020/12/29 01:51:34;;;;;;;82.93;27.77;;;;;;;;;;5083529;28;20039;-74
2020/12/29 01:54:00;;;;;;;80.72;27.25;;;;;;;;;;5092159;28;20049;-74
2020/12/29 01:56:27;;;;;;;87.43;29.52;;;;;;;;;;5083244;28;20055;-75
2020/12/29 01:58:54;;;;;;;83.78;29.55;;;;;;;;;;5085478;28;20043;-75
2020/12/29 02:01:20;;;;;;;73.85;27.63;;;;;;;;;;5083064;28;20052;-74
2020/12/29 02:03:46;;;;;;;83.93;27.75;;;;;;;;;;5082307;28;20036;-75
2020/12/29 02:06:13;;;;;;;62.30;27.50;;;;;;;;;;5082608;28;20040;-75
2020/12/29 02:08:39;;;;;;;80.63;28.35;;;;;;;;;;5083892;28;20047;-74
2020/12/29 02:11:05;;;;;;;79.22;29.42;;;;;;;;;;5107666;28;20049;-74
2020/12/29 02:13:39;;;;;;;70.22;27.50;;;;;;;;;;5083237;28;20052;-74
2020/12/29 02:16:05;;;;;;;89.18;28.23;;;;;;;;;;5085070;28;20040;-75
2020/12/29 02:18:32;;;;;;;81.45;28.75;;;;;;;;;;5120358;27;20051;-75
2020/12/29 02:20:58;;;;;;;89.57;30.25;;;;;;;;;;5091283;28;20502;-75
2020/12/29 02:23:24;;;;;;;85.70;29.33;;;;;;;;;;5114314;27;20128;-74
2020/12/29 02:25:50;;;;;;;83.45;28.80;;;;;;;;;;5115271;27;20044;-75
2020/12/29 02:28:17;;;;;;;79.13;29.30;;;;;;;;;;5109508;27;20052;-74
2020/12/29 02:30:43;;;;;;;75.57;29.08;;;;;;;;;;5086879;28;20072;-75
2020/12/29 02:33:09;;;;;;;87.95;30.95;;;;;;;;;;5085977;28;20036;-75
2020/12/29 02:35:35;;;;;;;79.78;30.85;;;;;;;;;;5112476;27;20044;-75
2020/12/29 02:38:02;;;;;;;95.20;30.30;;;;;;;;;;5083373;28;20078;-74
2020/12/29 02:40:28;;;;;;;68.13;31.15;;;;;;;;;;5085222;28;20084;-75
2020/12/29 02:42:54;;;;;;;122.15;34.70;;;;;;;;;;5114131;27;20047;-74
2020/12/29 02:45:20;;;;;;;102.82;31.20;;;;;;;;;;5097849;27;20385;-75
2020/12/29 02:47:47;;;;;;;84.18;31.45;;;;;;;;;;5090388;28;20048;-75
2020/12/29 02:50:13;;;;;;;115.28;33.53;;;;;;;;;;5076528;28;20178;-75
2020/12/29 02:52:39;;;;;;;128.45;33.55;;;;;;;;;;5090630;28;20085;-75
2020/12/29 02:55:05;;;;;;;93.70;31.10;;;;;;;;;;5073210;28;20052;-74
2020/12/29 02:57:32;;;;;;;105.45;32.03;;;;;;;;;;5085761;28;20077;-74
2020/12/29 02:59:59;;;;;;;111.15;32.17;;;;;;;;;;5077424;28;20098;-74
2020/12/29 03:02:25;;;;;;;110.10;31.77;;;;;;;;;;5088193;28;20071;-74
2020/12/29 03:04:51;;;;;;;115.78;32.70;;;;;;;;;;5086163;28;20051;-74
2020/12/29 03:07:17;;;;;;;138.57;35.53;;;;;;;;;;5115040;27;20051;-75
2020/12/29 03:09:44;;;;;;;103.95;30.80;;;;;;;;;;5087504;28;20218;-75
2020/12/29 03:12:11;;;;;;;110.47;32.90;;;;;;;;;;5087037;28;20043;-74
2020/12/29 03:14:37;;;;;;;101.38;30.48;;;;;;;;;;5087937;28;20032;-75
2020/12/29 03:17:03;;;;;;;123.10;33.35;;;;;;;;;;5085203;28;20459;-75
2020/12/29 03:19:29;;;;;;;121.55;32.10;;;;;;;;;;5088110;28;20058;-74
2020/12/29 03:21:56;;;;;;;88.88;29.48;;;;;;;;;;5086809;28;20131;-74
2020/12/29 03:24:22;;;;;;;108.93;31.38;;;;;;;;;;5086431;28;20040;-75
2020/12/29 03:26:48;;;;;;;100.45;30.20;;;;;;;;;;5110504;27;20122;-74
2020/12/29 03:29:15;;;;;;;99.70;30.45;;;;;;;;;;5084813;28;20036;-74
2020/12/29 03:31:45;;;;;;;88.75;30.27;;;;;;;;;;5078027;28;20040;-74
2020/12/29 03:34:16;;;;;;;73.47;27.77;;;;;;;;;;5083254;28;20064;-74
2020/12/29 03:36:43;;;;;;;112.25;31.30;;;;;;;;;;5085983;28;20032;-75
2020/12/29 03:39:09;;;;;;;126.65;31.17;;;;;;;;;;5110642;27;20036;-74
2020/12/29 03:41:35;;;;;;;92.82;29.45;;;;;;;;;;5084539;28;20098;-74
2020/12/29 03:44:01;;;;;;;97.10;28.52;;;;;;;;;;5103619;27;20045;-74
2020/12/29 03:46:28;;;;;;;113.00;31.05;;;;;;;;;;5080508;28;20071;-75
2020/12/29 03:48:54;;;;;;;92.43;28.27;;;;;;;;;;5084416;28;20055;-75
2020/12/29 03:51:20;;;;;;;120.22;30.77;;;;;;;;;;5086433;28;20093;-74
2020/12/29 03:53:47;;;;;;;119.97;29.63;;;;;;;;;;5086350;28;20047;-75
2020/12/29 03:56:13;;;;;;;95.97;29.60;;;;;;;;;;5086416;28;20169;-75
2020/12/29 03:58:40;;;;;;;116.03;29.65;;;;;;;;;;5085428;28;20404;-75
2020/12/29 04:01:07;;;;;;;109.20;28.63;;;;;;;;;;5081815;28;20127;-74
2020/12/29 04:03:33;;;;;;;102.85;28.95;;;;;;;;;;5117253;27;20478;-74
2020/12/29 04:05:59;;;;;;;104.40;28.42;;;;;;;;;;5073459;28;20479;-75
2020/12/29 04:08:26;;;;;;;131.00;30.38;;;;;;;;;;5089836;28;20032;-75
2020/12/29 04:10:52;;;;;;;106.80;27.33;;;;;;;;;;5089638;28;20121;-75
2020/12/29 04:13:18;;;;;;;103.47;28.15;;;;;;;;;;5083312;28;20040;-75
2020/12/29 04:15:45;;;;;;;77.60;25.63;;;;;;;;;;5113370;27;20046;-75
2020/12/29 04:18:11;;;;;;;110.40;27.67;;;;;;;;;;5083065;28;20119;-75
2020/12/29 04:20:38;;;;;;;96.40;26.35;;;;;;;;;;5084621;28;20071;-74
2020/12/29 04:23:04;;;;;;;73.43;23.90;;;;;;;;;;5089010;28;20044;-75
2020/12/29 04:25:30;;;;;;;73.32;23.73;;;;;;;;;;5090751;28;20040;-75
2020/12/29 04:27:57;;;;;;;80.20;25.25;;;;;;;;;;5083755;28;20040;-74
2020/12/29 04:30:23;;;;;;;110.90;26.17;;;;;;;;;;5089269;28;20091;-75
2020/12/29 04:32:49;;;;;;;72.63;25.20;;;;;;;;;;5086487;28;20450;-75
2020/12/29 04:35:16;;;;;;;103.88;25.77;;;;;;;;;;5080700;28;20059;-74
2020/12/29 04:37:42;;;;;;;85.07;25.23;;;;;;;;;;5112933;27;20061;-75
2020/12/29 04:40:08;;;;;;;101.65;25.35;;;;;;;;;;5077771;28;20039;-75
2020/12/29 04:42:35;;;;;;;120.93;28.02;;;;;;;;;;5082085;28;20055;-75
2020/12/29 04:45:02;;;;;;;95.07;25.30;;;;;;;;;;5082685;28;20047;-74
2020/12/29 04:47:28;;;;;;;102.85;26.98;;;;;;;;;;5108147;27;20085;-75
2020/12/29 04:49:55;;;;;;;90.47;26.55;;;;;;;;;;5086368;28;20048;-74
2020/12/29 04:52:22;;;;;;;96.32;25.83;;;;;;;;;;5083013;28;20097;-75
2020/12/29 04:54:51;;;;;;;104.15;25.67;;;;;;;;;;5081948;28;20052;-74
2020/12/29 04:57:17;;;;;;;103.03;27.13;;;;;;;;;;5080551;28;20047;-75
2020/12/29 04:59:44;;;;;;;112.40;26.55;;;;;;;;;;5105737;28;20527;-75
2020/12/29 05:02:11;;;;;;;115.78;26.60;;;;;;;;;;5089412;28;20046;-74
2020/12/29 05:04:37;;;;;;;122.75;29.02;;;;;;;;;;5084549;28;20036;-74
2020/12/29 05:07:04;;;;;;;64.63;24.77;;;;;;;;;;5086801;28;20046;-75
2020/12/29 05:09:30;;;;;;;51.55;22.08;;;;;;;;;;5084154;28;20118;-74
2020/12/29 05:11:56;;;;;;;42.38;19.63;;;;;;;;;;5082501;28;20048;-74
2020/12/29 05:14:23;;;;;;;25.80;14.30;;;;;;;;;;5087142;28;20042;-74
2020/12/29 05:16:50;;;;;;;31.30;16.48;;;;;;;;;;5084033;28;20047;-75
2020/12/29 05:19:18;;;;;;;21.40;12.90;;;;;;;;;;5084379;28;20388;-74
2020/12/29 05:21:46;;;;;;;27.50;14.07;;;;;;;;;;5087676;28;20716;-74
2020/12/29 05:24:19;;;;;;;35.95;16.25;;;;;;;;;;5083565;28;20048;-74
2020/12/29 05:26:47;;;;;;;25.90;13.55;;;;;;;;;;5117104;28;20051;-74
2020/12/29 05:29:14;;;;;;;29.55;14.38;;;;;;;;;;5086938;28;20117;-74
2020/12/29 05:31:41;;;;;;;25.65;14.00;;;;;;;;;;5084682;28;20052;-75
2020/12/29 05:34:08;;;;;;;32.53;16.55;;;;;;;;;;5087391;28;20140;-74
2020/12/29 05:36:35;;;;;;;37.85;17.48;;;;;;;;;;5087093;28;20040;-74
2020/12/29 05:39:06;;;;;;;33.20;15.65;;;;;;;;;;5080687;28;20476;-75
2020/12/29 05:41:36;;;;;;;49.38;18.17;;;;;;;;;;5079647;28;20071;-74
2020/12/29 05:44:03;;;;;;;34.30;17.15;;;;;;;;;;5081575;28;20146;-74
2020/12/29 05:46:30;;;;;;;55.03;19.33;;;;;;;;;;5082548;28;20180;-74
2020/12/29 05:48:57;;;;;;;45.83;18.17;;;;;;;;;;5112033;28;20040;-74
2020/12/29 05:51:24;;;;;;;44.65;18.00;;;;;;;;;;5080832;28;20123;-74
2020/12/29 05:53:51;;;;;;;43.80;18.77;;;;;;;;;;5091180;28;20754;-74
2020/12/29 05:56:19;;;;;;;51.25;18.27;;;;;;;;;;5089518;28;20118;-74
2020/12/29 05:58:46;;;;;;;43.05;17.80;;;;;;;;;;5087912;28;20028;-75
2020/12/29 06:01:12;;;;;;;32.10;15.93;;;;;;;;;;5085721;28;20475;-74
2020/12/29 06:03:40;;;;;;;40.17;16.70;;;;;;;;;;5084328;28;20432;-74
2020/12/29 06:06:07;;;;;;;46.05;17.77;;;;;;;;;;5087721;28;20043;-74
2020/12/29 06:08:36;;;;;;;54.13;18.70;;;;;;;;;;5082923;28;20510;-74
2020/12/29 06:11:13;;;;;;;38.40;16.80;;;;;;;;;;5082289;28;20041;-74
2020/12/29 06:13:46;;;;;;;44.47;18.02;;;;;;;;;;5112269;27;20056;-74
2020/12/29 06:16:15;;;;;;;47.00;19.00;;;;;;;;;;5115384;27;20097;-74
2020/12/29 06:18:44;;;;;;;42.85;17.85;;;;;;;;;;5087119;28;20466;-74
2020/12/29 06:21:11;;;;;;;48.13;17.65;;;;;;;;;;5091429;28;20115;-74
2020/12/29 06:23:44;;;;;;;43.95;17.55;;;;;;;;;;5090294;28;20108;-74
2020/12/29 06:26:10;;;;;;;48.47;17.58;;;;;;;;;;5114325;27;20044;-74
2020/12/29 06:28:40;;;;;;;87.32;20.65;;;;;;;;;;5080684;28;20040;-74
2020/12/29 06:31:09;;;;;;;69.85;21.60;;;;;;;;;;5084261;28;20058;-74
2020/12/29 06:33:35;;;;;;;53.30;18.83;;;;;;;;;;5088465;28;20036;-74
2020/12/29 06:36:02;;;;;;;44.72;17.70;;;;;;;;;;5086350;28;20035;-74
2020/12/29 06:38:29;;;;;;;45.30;17.23;;;;;;;;;;5089524;28;20037;-74
2020/12/29 06:40:56;;;;;;;48.42;16.83;;;;;;;;;;5088709;28;20045;-75
2020/12/29 06:43:22;;;;;;;58.38;19.33;;;;;;;;;;5086757;28;20110;-74
2020/12/29 06:45:48;;;;;;;49.40;18.70;;;;;;;;;;5114450;27;20154;-74
2020/12/29 06:48:15;;;;;;;70.57;21.00;;;;;;;;;;5093863;28;20407;-74
2020/12/29 06:50:42;;;;;;;47.15;18.35;;;;;;;;;;5114172;27;20048;-74
2020/12/29 06:53:08;;;;;;;51.90;20.33;;;;;;;;;;5088701;28;20043;-74
2020/12/29 06:55:36;;;;;;;63.28;20.42;;;;;;;;;;5085313;28;20075;-74
2020/12/29 06:58:04;;;;;;;47.00;18.60;;;;;;;;;;5080524;28;20040;-74
2020/12/29 07:00:30;;;;;;;62.00;20.98;;;;;;;;;;5082758;28;20466;-74
2020/12/29 07:02:56;;;;;;;48.08;19.95;;;;;;;;;;5078758;28;20044;-74
2020/12/29 07:05:24;;;;;;;49.33;20.48;;;;;;;;;;5086492;28;20082;-74
2020/12/29 07:08:00;;;;;;;48.35;20.95;;;;;;;;;;5075002;28;20143;-74
2020/12/29 07:10:28;;;;;;;37.22;19.85;;;;;;;;;;5083142;28;20040;-74
2020/12/29 07:12:54;;;;;;;49.60;20.42;;;;;;;;;;5085289;28;20048;-74
2020/12/29 07:15:22;;;;;;;38.17;17.90;;;;;;;;;;5084699;28;20429;-74
2020/12/29 07:17:55;;;;;;;31.38;15.98;;;;;;;;;;5085831;28;20049;-71
2020/12/29 07:20:23;;;;;;;35.60;17.15;;;;;;;;;;5112087;27;20122;-71
2020/12/29 07:22:54;;;;;;;46.90;18.52;;;;;;;;;;5117059;27;20048;-71
2020/12/29 07:25:21;;;;;;;32.58;16.35;;;;;;;;;;5092135;28;20040;-72
2020/12/29 07:27:50;;;;;;;36.47;17.90;;;;;;;;;;5092314;28;20110;-71
2020/12/29 07:30:16;;;;;;;34.85;15.90;;;;;;;;;;5092064;28;20032;-71
2020/12/29 07:32:43;;;;;;;33.55;17.17;;;;;;;;;;5091892;28;20063;-71
2020/12/29 07:35:09;;;;;;;31.30;16.52;;;;;;;;;;5090240;28;20495;-72
2020/12/29 07:37:36;;;;;;;36.08;17.38;;;;;;;;;;5091739;28;20121;-71
2020/12/29 07:40:03;;;;;;;28.00;14.63;;;;;;;;;;5088282;28;20058;-71
2020/12/29 07:42:29;;;;;;;33.33;15.98;;;;;;;;;;5090606;28;20050;-72
2020/12/29 07:44:56;;;;;;;31.67;15.18;;;;;;;;;;5090384;28;20580;-72
2020/12/29 07:47:22;;;;;;;29.38;13.35;;;;;;;;;;5092700;28;20044;-72
2020/12/29 07:49:48;;;;;;;26.80;13.52;;;;;;;;;;5091601;28;20541;-72
2020/12/29 07:52:22;;;;;;;27.73;12.75;;;;;;;;;;5089211;28;20559;-73
2020/12/29 07:54:48;;;;;;;24.88;12.73;;;;;;;;;;5092214;28;20147;-73
2020/12/29 07:57:14;;;;;;;34.97;14.82;;;;;;;;;;5080339;28;20206;-73
2020/12/29 07:59:41;;;;;;;27.45;12.98;;;;;;;;;;5088125;28;20101;-73
2020/12/29 08:02:08;;;;;;;22.70;13.38;;;;;;;;;;5082212;28;20068;-71
2020/12/29 08:04:35;;;;;;;21.73;11.80;;;;;;;;;;5077856;28;20051;-71
2020/12/29 08:07:08;;;;;;;19.88;11.80;;;;;;;;;;5078814;28;20147;-70
2020/12/29 08:09:47;;;;;;;23.13;14.27;;;;;;;;;;5084045;28;20113;-70
2020/12/29 08:12:15;;;;;;;24.13;13.85;;;;;;;;;;5087221;28;20243;-70
2020/12/29 08:14:42;;;;;;;27.25;14.40;;;;;;;;;;5087484;28;20477;-71
2020/12/29 08:17:08;;;;;;;26.67;13.70;;;;;;;;;;5089172;28;20063;-71
2020/12/29 08:19:35;;;;;;;35.10;14.77;;;;;;;;;;5089485;28;20140;-71
2020/12/29 08:22:06;;;;;;;29.38;14.57;;;;;;;;;;5089036;28;20048;-70
2020/12/29 08:24:32;;;;;;;25.33;14.68;;;;;;;;;;5088840;28;20043;-71
2020/12/29 08:26:59;;;;;;;37.25;15.65;;;;;;;;;;5090124;28;20056;-71
2020/12/29 08:29:26;;;;;;;34.33;17.08;;;;;;;;;;5083429;28;20068;-71
2020/12/29 08:32:05;;;;;;;29.77;15.48;;;;;;;;;;5072605;28;20047;-70
2020/12/29 08:34:33;;;;;;;32.85;14.45;;;;;;;;;;5079409;28;20054;-70
2020/12/29 08:37:01;;;;;;;39.88;15.82;;;;;;;;;;5089860;28;20051;-71
2020/12/29 08:39:37;;;;;;;33.88;15.25;;;;;;;;;;5085697;28;20032;-70
2020/12/29 08:42:06;;;;;;;39.30;16.45;;;;;;;;;;5084018;28;20056;-70
2020/12/29 08:44:32;;;;;;;36.40;16.20;;;;;;;;;;5084540;28;20503;-73
2020/12/29 08:46:59;;;;;;;35.80;16.45;;;;;;;;;;5084127;28;20487;-72
2020/12/29 08:49:30;;;;;;;30.52;15.07;;;;;;;;;;5084959;28;20048;-75
2020/12/29 08:51:56;;;;;;;35.58;16.05;;;;;;;;;;5085892;28;20079;-71
2020/12/29 08:54:23;;;;;;;29.75;14.73;;;;;;;;;;5086406;28;20035;-71
2020/12/29 08:56:49;;;;;;;30.65;15.73;;;;;;;;;;5086933;28;20053;-70
2020/12/29 08:59:19;;;;;;;38.65;15.45;;;;;;;;;;5089198;28;20403;-71
2020/12/29 09:01:47;;;;;;;35.60;17.15;;;;;;;;;;5086411;28;20051;-72
2020/12/29 09:04:33;;;;;;;33.92;15.23;;;;;;;;;;5086226;28;20072;-72
2020/12/29 09:07:01;;;;;;;27.15;14.20;;;;;;;;;;5083671;28;20040;-72
2020/12/29 09:09:29;;;;;;;33.90;17.73;;;;;;;;;;5087699;28;20075;-72
2020/12/29 09:12:05;;;;;;;32.10;16.90;;;;;;;;;;5088350;28;20115;-72
2020/12/29 09:14:31;;;;;;;32.95;16.55;;;;;;;;;;5084284;28;20098;-73
2020/12/29 09:16:59;;;;;;;35.85;17.67;;;;;;;;;;5089727;28;20068;-72
2020/12/29 09:19:25;;;;;;;30.75;16.77;;;;;;;;;;5082961;28;20395;-71
2020/12/29 09:22:03;;;;;;;44.03;17.33;;;;;;;;;;5088721;28;20097;-71
2020/12/29 09:24:29;;;;;;;26.17;13.35;;;;;;;;;;5088251;28;20036;-71
2020/12/29 09:26:56;;;;;;;22.58;11.30;;;;;;;;;;5094260;28;20047;-70
2020/12/29 09:29:22;;;;;;;22.33;10.75;;;;;;;;;;5093888;28;20036;-71
2020/12/29 09:31:52;;;;;;;17.52;9.95;;;;;;;;;;5093461;28;20483;-71
2020/12/29 09:34:19;;;;;;;24.90;11.07;;;;;;;;;;5096240;28;20048;-72
2020/12/29 09:36:45;;;;;;;15.82;8.90;;;;;;;;;;5100994;28;20055;-71
2020/12/29 09:39:12;;;;;;;21.17;10.63;;;;;;;;;;5089689;28;20082;-71
2020/12/29 09:41:38;;;;;;;17.35;9.90;;;;;;;;;;5095764;28;20502;-71
2020/12/29 09:44:05;;;;;;;19.55;10.65;;;;;;;;;;5092779;28;20513;-71
2020/12/29 09:46:35;;;;;;;15.43;9.25;;;;;;;;;;5098259;28;20150;-70
2020/12/29 09:49:01;;;;;;;16.98;9.57;;;;;;;;;;5078782;28;20053;-71
2020/12/29 09:51:28;;;;;;;19.23;9.25;;;;;;;;;;5092271;28;20036;-72
2020/12/29 09:53:54;;;;;;;14.55;9.13;;;;;;;;;;5089991;28;20419;-71
2020/12/29 09:56:21;;;;;;;18.00;9.38;;;;;;;;;;5097473;28;20044;-71
2020/12/29 09:58:47;;;;;;;17.77;9.82;;;;;;;;;;5087439;28;20060;-71
2020/12/29 10:01:14;;;;;;;16.35;9.40;;;;;;;;;;5081906;28;20044;-71
2020/12/29 10:03:40;;;;;;;15.45;9.10;;;;;;;;;;5093781;28;20356;-71
2020/12/29 10:06:06;;;;;;;18.00;9.32;;;;;;;;;;5084322;28;20479;-70
2020/12/29 10:08:33;;;;;;;18.65;9.65;;;;;;;;;;5080051;28;20040;-70
2020/12/29 10:10:59;;;;;;;16.48;9.13;;;;;;;;;;5096349;28;20040;-75
2020/12/29 10:13:26;;;;;;;22.50;11.02;;;;;;;;;;5093414;28;20044;-73
2020/12/29 10:15:52;;;;;;;19.52;10.38;;;;;;;;;;5091630;28;20041;-70
2020/12/29 10:18:18;;;;;;;14.52;8.82;;;;;;;;;;5091912;28;20105;-71
2020/12/29 10:20:45;;;;;;;16.75;8.77;;;;;;;;;;5086147;28;20040;-71
2020/12/29 10:23:11;;;;;;;17.60;9.98;;;;;;;;;;5096902;28;20508;-71
2020/12/29 10:25:38;;;;;;;23.00;10.60;;;;;;;;;;5079664;28;20049;-71
2020/12/29 10:28:04;;;;;;;19.80;10.18;;;;;;;;;;5093467;28;20090;-71
2020/12/29 10:30:30;;;;;;;17.25;10.23;;;;;;;;;;5093447;28;20180;-71
2020/12/29 10:32:57;;;;;;;24.05;12.00;;;;;;;;;;5092683;28;20038;-71
2020/12/29 10:35:23;;;;;;;21.55;11.07;;;;;;;;;;5096398;28;20110;-72
2020/12/29 10:37:49;;;;;;;22.95;11.43;;;;;;;;;;5091260;28;20089;-71
2020/12/29 10:40:16;;;;;;;19.02;10.52;;;;;;;;;;5090221;28;20476;-72
2020/12/29 10:42:42;;;;;;;26.63;12.13;;;;;;;;;;5093523;28;20052;-71
2020/12/29 10:45:08;;;;;;;21.90;10.73;;;;;;;;;;5092893;28;20036;-71
2020/12/29 10:47:35;;;;;;;20.70;9.98;;;;;;;;;;5093493;28;20119;-71
2020/12/29 10:50:01;;;;;;;21.10;11.05;;;;;;;;;;5093407;28;20119;-71
2020/12/29 10:52:27;;;;;;;22.25;11.15;;;;;;;;;;5092361;28;20539;-71
2020/12/29 10:54:53;;;;;;;21.15;11.25;;;;;;;;;;5093412;28;20041;-71
2020/12/29 10:57:20;;;;;;;24.73;11.60;;;;;;;;;;5093759;28;20234;-71
2020/12/29 10:59:47;;;;;;;23.20;12.07;;;;;;;;;;5092186;28;20051;-71
2020/12/29 11:02:13;;;;;;;21.70;11.00;;;;;;;;;;5098464;28;20071;-71
2020/12/29 11:04:40;;;;;;;20.92;11.38;;;;;;;;;;5092612;28;20042;-71
2020/12/29 11:07:06;;;;;;;17.23;9.50;;;;;;;;;;5092540;28;20167;-71
2020/12/29 11:09:32;;;;;;;28.42;12.88;;;;;;;;;;5093165;28;20070;-71
2020/12/29 11:11:59;;;;;;;20.90;9.85;;;;;;;;;;5093189;28;20071;-71
2020/12/29 11:14:26;;;;;;;27.38;10.52;;;;;;;;;;5091910;28;20497;-71
2020/12/29 11:16:53;;;;;;;18.80;9.02;;;;;;;;;;5092956;28;20040;-70
2020/12/29 11:19:19;;;;;;;16.45;8.23;;;;;;;;;;5093616;28;20040;-70
2020/12/29 11:21:46;;;;;;;15.10;6.45;;;;;;;;;;5092087;28;20056;-71
2020/12/29 11:24:13;;;;;;;11.50;7.25;;;;;;;;;;5125047;27;20040;-71
2020/12/29 11:26:39;;;;;;;15.88;7.60;;;;;;;;;;5092685;28;20044;-71
2020/12/29 11:29:06;;;;;;;15.85;8.38;;;;;;;;;;5091566;28;20044;-71
2020/12/29 11:31:32;;;;;;;14.23;7.47;;;;;;;;;;5092584;28;20036;-71
2020/12/29 11:33:59;;;;;;;16.20;8.25;;;;;;;;;;5091437;28;20048;-71
2020/12/29 11:36:25;;;;;;;15.35;8.13;;;;;;;;;;5124534;27;20036;-71
2020/12/29 11:38:51;;;;;;;12.30;7.78;;;;;;;;;;5088643;28;20052;-71
2020/12/29 11:41:18;;;;;;;11.88;7.88;;;;;;;;;;5091006;28;20052;-71
2020/12/29 11:43:44;;;;;;;17.05;8.45;;;;;;;;;;5089890;28;20130;-70
2020/12/29 11:46:11;;;;;;;16.30;9.00;;;;;;;;;;5091826;28;20036;-71
2020/12/29 11:48:37;;;;;;;13.77;7.43;;;;;;;;;;5087849;28;20078;-71
2020/12/29 11:51:05;;;;;;;12.82;7.38;;;;;;;;;;5110344;27;20040;-71
2020/12/29 11:53:33;;;;;;;13.77;8.02;;;;;;;;;;5088038;28;20047;-71
2020/12/29 11:55:59;;;;;;;13.93;7.63;;;;;;;;;;5089030;28;20039;-71
2020/12/29 11:58:26;;;;;;;12.00;7.13;;;;;;;;;;5088341;28;20048;-71
2020/12/29 12:00:52;;;;;;;13.05;8.05;;;;;;;;;;5094927;28;20032;-71
2020/12/29 12:03:19;;;;;;;13.13;7.95;;;;;;;;;;5088499;28;20044;-71
2020/12/29 12:05:45;;;;;;;17.55;8.55;;;;;;;;;;5091757;28;20410;-71
2020/12/29 12:08:11;;;;;;;22.17;8.63;;;;;;;;;;5094642;28;20475;-71
2020/12/29 12:10:38;;;;;;;16.70;8.20;;;;;;;;;;5094175;28;20042;-71
2020/12/29 12:13:05;;;;;;;13.80;7.85;;;;;;;;;;5095412;28;20063;-71
2020/12/29 12:15:32;;;;;;;16.90;8.77;;;;;;;;;;5091544;28;20097;-71
2020/12/29 12:17:58;;;;;;;20.55;9.65;;;;;;;;;;5090685;28;20036;-70
2020/12/29 12:20:24;;;;;;;19.00;8.95;;;;;;;;;;5093416;28;20044;-71
2020/12/29 12:22:50;;;;;;;18.85;9.90;;;;;;;;;;5093705;28;20089;-70
2020/12/29 12:25:17;;;;;;;18.27;9.88;;;;;;;;;;5090423;28;20561;-70
2020/12/29 12:27:44;;;;;;;18.30;10.43;;;;;;;;;;5087769;28;20058;-70
2020/12/29 12:30:10;;;;;;;20.30;10.32;;;;;;;;;;5091366;28;20046;-70
2020/12/29 12:32:36;;;;;;;22.30;11.50;;;;;;;;;;5085936;28;20044;-70
2020/12/29 12:35:03;;;;;;;20.48;11.00;;;;;;;;;;5083951;28;20520;-71
2020/12/29 12:37:29;;;;;;;21.98;12.40;;;;;;;;;;5080641;28;20063;-70
2020/12/29 12:39:55;;;;;;;22.25;12.00;;;;;;;;;;5091535;28;20043;-70
2020/12/29 12:42:22;;;;;;;27.63;12.15;;;;;;;;;;5091099;28;20048;-70
2020/12/29 12:44:48;;;;;;;26.00;13.32;;;;;;;;;;5090218;28;20440;-70
2020/12/29 12:47:14;;;;;;;26.15;13.05;;;;;;;;;;5090965;28;20485;-73
2020/12/29 12:49:41;;;;;;;33.03;13.80;;;;;;;;;;5090004;28;20039;-80
2020/12/29 12:52:07;;;;;;;26.25;12.68;;;;;;;;;;5087321;28;20036;-70
2020/12/29 12:54:33;;;;;;;25.35;12.93;;;;;;;;;;5089727;28;20701;-70
2020/12/29 12:57:00;;;;;;;34.13;14.30;;;;;;;;;;5088977;28;20455;-70
2020/12/29 12:59:26;;;;;;;28.95;13.38;;;;;;;;;;5089139;28;20475;-70
2020/12/29 13:01:53;;;;;;;29.38;13.63;;;;;;;;;;5090082;28;20063;-70
2020/12/29 13:04:20;;;;;;;28.40;13.20;;;;;;;;;;5097906;28;20062;-70
2020/12/29 13:06:47;;;;;;;29.73;14.02;;;;;;;;;;5088462;28;20044;-70
2020/12/29 13:09:13;;;;;;;37.65;15.18;;;;;;;;;;5090419;28;20043;-70
2020/12/29 13:11:40;;;;;;;39.55;16.90;;;;;;;;;;5092990;28;20040;-70
2020/12/29 13:14:06;;;;;;;33.08;14.65;;;;;;;;;;5088200;28;20051;-69
2020/12/29 13:16:33;;;;;;;32.97;15.40;;;;;;;;;;5091062;28;20490;-70
2020/12/29 13:18:59;;;;;;;32.75;15.07;;;;;;;;;;5119376;27;20052;-70
2020/12/29 13:21:25;;;;;;;37.83;15.48;;;;;;;;;;5089695;28;20123;-70
2020/12/29 13:23:52;;;;;;;31.88;15.25;;;;;;;;;;5097396;28;20070;-70
2020/12/29 13:26:18;;;;;;;31.05;15.48;;;;;;;;;;5092531;28;20039;-70
2020/12/29 13:28:45;;;;;;;33.33;14.98;;;;;;;;;;5088415;28;20040;-70
2020/12/29 13:31:11;;;;;;;35.10;16.23;;;;;;;;;;5091818;28;20723;-70
2020/12/29 13:33:39;;;;;;;36.30;16.13;;;;;;;;;;5093739;28;20046;-70
2020/12/29 13:36:06;;;;;;;34.63;15.63;;;;;;;;;;5091058;28;20390;-70
2020/12/29 13:38:33;;;;;;;35.63;16.02;;;;;;;;;;5094371;28;20036;-72
2020/12/29 13:41:00;;;;;;;36.85;16.15;;;;;;;;;;5090440;28;20600;-72
2020/12/29 13:43:27;;;;;;;37.58;16.45;;;;;;;;;;5090519;28;20044;-72
2020/12/29 13:45:54;;;;;;;41.58;17.90;;;;;;;;;;5091032;28;20044;-72
2020/12/29 13:48:21;;;;;;;35.30;15.77;;;;;;;;;;5089981;28;20070;-72
2020/12/29 13:50:48;;;;;;;40.70;15.65;;;;;;;;;;5096629;28;20084;-73
2020/12/29 13:53:14;;;;;;;34.60;14.75;;;;;;;;;;5089813;28;20067;-73
2020/12/29 13:55:43;;;;;;;46.30;16.23;;;;;;;;;;5093296;28;20408;-73
2020/12/29 13:58:09;;;;;;;37.33;14.50;;;;;;;;;;5093069;28;20045;-72
2020/12/29 14:00:36;;;;;;;39.63;15.52;;;;;;;;;;5090239;28;20051;-73
2020/12/29 14:03:02;;;;;;;35.03;15.05;;;;;;;;;;5089354;28;20089;-73
2020/12/29 14:05:28;;;;;;;48.15;17.27;;;;;;;;;;5090380;28;20436;-73
2020/12/29 14:07:55;;;;;;;38.70;14.98;;;;;;;;;;5091978;28;20047;-77
2020/12/29 14:10:21;;;;;;;38.83;15.35;;;;;;;;;;5092290;28;20111;-78
2020/12/29 14:12:47;;;;;;;34.47;14.82;;;;;;;;;;5096961;28;20513;-73
2020/12/29 14:15:14;;;;;;;33.95;14.30;;;;;;;;;;5092361;28;20084;-73
2020/12/29 14:17:40;;;;;;;22.92;10.68;;;;;;;;;;5099148;28;20038;-75